< < Back
Terminal Aerodrome Forecast


Current Version              Previous Versions:   1  2  3  4  5  6  7  8  9  

Terminal Aerodrome Forecast

533
FTUS42 KGSP 180526
TAFCLT
TAF
KCLT 180526Z 1806/1906 34003KT P6SM FEW250
     FM181500 04005KT P6SM BKN140
     FM181700 14004KT P6SM BKN070
     FM182000 22005KT P6SM BKN070
     FM190300 33003KT P6SM BKN060=



Latest METAR

828
SAUS70 KWBC 181900 RRB
MTRCLT
METAR KCLT 181852Z 00000KT 10SM FEW085 BKN160 12/M06 A3010 RMK AO2
SLP194 T01171061


USA.gov is the U.S. government's official web portal to all federal, state and local government web resources and services.